createdAt,value
2023-05-14T00:00:24.528Z,3
2023-05-14T00:00:48.143Z,4
2023-05-14T00:01:07.165Z,5
2023-05-14T00:01:41.890Z,6
2023-05-14T00:02:13.645Z,6
2023-05-14T00:02:45.763Z,4
2023-05-14T00:03:17.020Z,6
2023-05-14T00:03:49.814Z,5
2023-05-14T00:04:21.498Z,7
2023-05-14T00:04:44.099Z,10
2023-05-14T00:05:06.871Z,12
2023-05-14T00:05:41.445Z,13
2023-05-14T00:06:13.350Z,18
2023-05-14T00:06:45.519Z,21
2023-05-14T00:07:17.944Z,30
2023-05-14T00:07:50.200Z,29
2023-05-14T00:08:21.429Z,29
2023-05-14T00:08:44.251Z,29
2023-05-14T00:09:10.063Z,29
2023-05-14T00:09:41.527Z,29
2023-05-14T00:10:13.449Z,27
2023-05-14T00:10:45.305Z,27
2023-05-14T00:11:16.609Z,27
2023-05-14T00:11:49.233Z,27
2023-05-14T00:12:21.441Z,29
2023-05-14T00:12:44.128Z,29
2023-05-14T00:13:07.457Z,29
2023-05-14T00:13:42.260Z,9
2023-05-14T00:14:13.421Z,22
2023-05-14T00:14:45.867Z,33
2023-05-14T00:15:16.520Z,36
2023-05-14T00:15:49.612Z,80
2023-05-14T00:16:22.182Z,38
2023-05-14T00:16:44.641Z,27
2023-05-14T00:17:07.971Z,35
2023-05-14T00:17:41.757Z,35
2023-05-14T00:18:16.205Z,42
2023-05-14T00:18:46.072Z,14
2023-05-14T00:19:16.875Z,12
2023-05-14T00:19:49.383Z,8
2023-05-14T00:20:23.315Z,9
2023-05-14T00:20:45.042Z,9
2023-05-14T00:21:07.505Z,14
2023-05-14T00:21:42.271Z,15
2023-05-14T00:22:13.928Z,17
2023-05-14T00:22:45.656Z,17
2023-05-14T00:23:16.379Z,17
2023-05-14T00:23:49.376Z,18
2023-05-14T00:24:23.581Z,28
2023-05-14T00:24:44.054Z,28
2023-05-14T00:25:06.674Z,30
2023-05-14T00:25:41.894Z,32
2023-05-14T00:26:14.583Z,34
2023-05-14T00:26:45.507Z,17
2023-05-14T00:27:17.250Z,15
2023-05-14T00:27:49.183Z,16
2023-05-14T00:28:24.225Z,10
2023-05-14T00:28:45.357Z,7
2023-05-14T00:29:08.343Z,16
2023-05-14T00:29:42.415Z,9
2023-05-14T00:30:13.920Z,346
2023-05-14T00:30:46.594Z,343
2023-05-14T00:31:19.646Z,346
2023-05-14T00:31:50.451Z,356
2023-05-14T00:32:21.329Z,3
2023-05-14T00:32:44.358Z,4
2023-05-14T00:33:06.958Z,10
2023-05-14T00:33:41.570Z,20
2023-05-14T00:34:13.266Z,30
2023-05-14T00:34:45.433Z,30
2023-05-14T00:35:17.042Z,30
2023-05-14T00:35:49.278Z,27
2023-05-14T00:36:21.270Z,27
2023-05-14T00:36:44.184Z,26
2023-05-14T00:37:06.431Z,18
2023-05-14T00:37:42.385Z,16
2023-05-14T00:38:13.287Z,17
2023-05-14T00:38:45.274Z,16
2023-05-14T00:39:16.725Z,356
2023-05-14T00:39:49.761Z,333
2023-05-14T00:40:21.681Z,327
2023-05-14T00:40:44.218Z,332
2023-05-14T00:41:06.547Z,4
2023-05-14T00:41:41.968Z,8
2023-05-14T00:42:13.419Z,11
2023-05-14T00:42:45.290Z,11
2023-05-14T00:43:16.444Z,14
2023-05-14T00:43:49.364Z,14
2023-05-14T00:44:21.443Z,12
2023-05-14T00:44:44.345Z,11
2023-05-14T00:45:06.862Z,4
2023-05-14T00:45:41.738Z,355
2023-05-14T00:46:13.804Z,351
2023-05-14T00:46:45.521Z,344
2023-05-14T00:47:16.860Z,344
2023-05-14T00:47:49.910Z,349
2023-05-14T00:48:27.223Z,344
2023-05-14T00:48:55.483Z,344
2023-05-14T00:49:27.398Z,338
2023-05-14T00:49:48.229Z,338
2023-05-14T00:50:10.794Z,344
2023-05-14T00:50:45.274Z,350
2023-05-14T00:51:16.704Z,355
2023-05-14T00:51:49.360Z,2
2023-05-14T00:52:21.826Z,6
2023-05-14T00:52:44.434Z,6
2023-05-14T00:53:06.814Z,4
2023-05-14T00:53:41.378Z,4
2023-05-14T00:54:13.269Z,354
2023-05-14T00:54:45.356Z,351
2023-05-14T00:55:16.947Z,354
2023-05-14T00:55:49.302Z,355
2023-05-14T00:56:21.932Z,358
2023-05-14T00:56:44.451Z,358
2023-05-14T00:57:09.951Z,3
2023-05-14T00:57:41.850Z,4
2023-05-14T00:58:14.231Z,6
2023-05-14T00:58:45.374Z,7
2023-05-14T00:59:17.052Z,7
2023-05-14T00:59:49.965Z,7
2023-05-14T01:00:23.316Z,8
2023-05-14T01:00:44.862Z,8
2023-05-14T01:01:07.234Z,8
2023-05-14T01:01:41.447Z,7
2023-05-14T01:02:14.830Z,341
2023-05-14T01:02:46.097Z,262
2023-05-14T01:03:16.938Z,259
2023-05-14T01:03:51.421Z,253
2023-05-14T01:04:21.686Z,241
2023-05-14T01:04:44.332Z,243
2023-05-14T01:05:07.875Z,247
2023-05-14T01:05:41.684Z,279
2023-05-14T01:06:13.284Z,289
2023-05-14T01:06:45.374Z,298
2023-05-14T01:07:18.078Z,313
2023-05-14T01:07:50.247Z,341
2023-05-14T01:08:22.182Z,353
2023-05-14T01:08:44.808Z,356
2023-05-14T01:09:07.172Z,357
2023-05-14T01:09:41.881Z,356
2023-05-14T01:10:14.758Z,356
2023-05-14T01:10:45.544Z,356
2023-05-14T01:11:16.822Z,357
2023-05-14T01:11:49.338Z,0
2023-05-14T01:12:21.339Z,1
2023-05-14T01:12:44.062Z,2
2023-05-14T01:13:06.578Z,2
2023-05-14T01:13:41.535Z,4
2023-05-14T01:14:14.006Z,4
2023-05-14T01:14:45.198Z,358
2023-05-14T01:15:16.549Z,358
2023-05-14T01:15:49.274Z,358
2023-05-14T01:16:21.395Z,359
2023-05-14T01:16:44.124Z,1
2023-05-14T01:17:06.766Z,2
2023-05-14T01:17:41.735Z,4
2023-05-14T01:18:13.729Z,6
2023-05-14T01:18:45.930Z,6
2023-05-14T01:19:16.517Z,359
2023-05-14T01:19:49.806Z,0
2023-05-14T01:20:21.612Z,2
2023-05-14T01:20:44.163Z,4
2023-05-14T01:21:07.698Z,6
2023-05-14T01:21:41.582Z,6
2023-05-14T01:22:13.459Z,7
2023-05-14T01:22:46.190Z,8
2023-05-14T01:23:17.130Z,10
2023-05-14T01:23:49.291Z,10
2023-05-14T01:24:23.868Z,10
2023-05-14T01:24:46.074Z,10
2023-05-14T01:25:08.625Z,10
2023-05-14T01:25:42.253Z,10
2023-05-14T01:26:13.578Z,10
2023-05-14T01:26:46.228Z,10
2023-05-14T01:27:16.468Z,10
2023-05-14T01:27:49.234Z,10
2023-05-14T01:28:21.945Z,10
2023-05-14T01:28:44.558Z,10
2023-05-14T01:29:07.272Z,10
2023-05-14T01:29:41.150Z,10
2023-05-14T01:30:13.862Z,10
2023-05-14T01:30:45.713Z,10
2023-05-14T01:31:17.684Z,10
2023-05-14T01:31:57.552Z,347
2023-05-14T01:32:21.073Z,346
2023-05-14T01:32:43.875Z,348
2023-05-14T01:33:06.548Z,351
2023-05-14T01:33:42.113Z,353
2023-05-14T01:34:13.437Z,355
2023-05-14T01:34:45.661Z,354
2023-05-14T01:35:16.704Z,354
2023-05-14T01:35:49.502Z,354
2023-05-14T01:36:21.929Z,354
2023-05-14T01:36:44.631Z,354
2023-05-14T01:37:06.959Z,355
2023-05-14T01:37:41.218Z,355
2023-05-14T01:38:13.874Z,355
2023-05-14T01:38:45.525Z,355
2023-05-14T01:39:16.398Z,356
2023-05-14T01:39:49.170Z,356
2023-05-14T01:40:21.353Z,358
2023-05-14T01:40:43.918Z,0
2023-05-14T01:41:06.237Z,4
2023-05-14T01:41:41.427Z,7
2023-05-14T01:42:13.173Z,10
2023-05-14T01:42:45.360Z,10
2023-05-14T01:43:16.520Z,11
2023-05-14T01:43:49.275Z,11
2023-05-14T01:44:21.350Z,11
2023-05-14T01:44:44.072Z,11
2023-05-14T01:45:06.634Z,11
2023-05-14T01:45:41.937Z,13
2023-05-14T01:46:14.021Z,13
2023-05-14T01:46:45.223Z,14
2023-05-14T01:47:16.463Z,14
2023-05-14T01:47:49.748Z,14
2023-05-14T01:48:21.861Z,15
2023-05-14T01:48:44.515Z,15
2023-05-14T01:49:07.199Z,15
2023-05-14T01:49:42.240Z,17
2023-05-14T01:50:14.390Z,22
2023-05-14T01:50:45.637Z,23
2023-05-14T01:51:16.502Z,23
2023-05-14T01:51:50.131Z,23
2023-05-14T01:52:21.250Z,23
2023-05-14T01:52:44.097Z,23
2023-05-14T01:53:06.907Z,23
2023-05-14T01:53:41.716Z,25
2023-05-14T01:54:14.007Z,30
2023-05-14T01:54:45.260Z,30
2023-05-14T01:55:17.476Z,30
2023-05-14T01:55:49.618Z,30
2023-05-14T01:56:22.093Z,30
2023-05-14T01:56:44.720Z,30
2023-05-14T01:57:09.041Z,25
2023-05-14T01:57:42.060Z,20
2023-05-14T01:58:13.856Z,16
2023-05-14T01:58:45.933Z,11
2023-05-14T01:59:16.602Z,8
2023-05-14T01:59:50.017Z,8
2023-05-14T02:00:21.608Z,8
2023-05-14T02:00:44.341Z,8
2023-05-14T02:01:07.239Z,8
2023-05-14T02:01:41.794Z,3
2023-05-14T02:02:20.867Z,10
2023-05-14T02:02:46.241Z,13
2023-05-14T02:03:26.931Z,13
2023-05-14T02:03:49.788Z,13
2023-05-14T02:04:18.239Z,13
2023-05-14T02:04:48.622Z,13
2023-05-14T02:05:27.971Z,15
2023-05-14T02:05:47.844Z,18
2023-05-14T02:06:10.788Z,18
2023-05-14T02:06:46.062Z,21
2023-05-14T02:07:17.203Z,27
2023-05-14T02:07:50.937Z,26
2023-05-14T02:08:21.271Z,26
2023-05-14T02:08:45.408Z,27
2023-05-14T02:09:06.667Z,26
2023-05-14T02:09:42.098Z,26
2023-05-14T02:10:13.619Z,26
2023-05-14T02:10:45.875Z,26
2023-05-14T02:11:16.678Z,26
2023-05-14T02:11:49.474Z,26
2023-05-14T02:12:22.489Z,26
2023-05-14T02:12:43.945Z,26
2023-05-14T02:13:10.069Z,26
2023-05-14T02:13:41.722Z,26
2023-05-14T02:14:13.615Z,26
2023-05-14T02:14:45.204Z,26
2023-05-14T02:15:17.589Z,26
2023-05-14T02:15:49.417Z,26
2023-05-14T02:16:21.483Z,26
2023-05-14T02:16:44.289Z,26
2023-05-14T02:17:06.671Z,27
2023-05-14T02:17:42.775Z,26
2023-05-14T02:18:13.414Z,26
2023-05-14T02:18:47.252Z,26
2023-05-14T02:19:16.861Z,26
2023-05-14T02:19:50.078Z,27
2023-05-14T02:20:21.393Z,27
2023-05-14T02:20:43.892Z,27
2023-05-14T02:21:06.758Z,27
2023-05-14T02:21:41.516Z,29
2023-05-14T02:22:13.552Z,29
2023-05-14T02:22:45.269Z,29
2023-05-14T02:23:16.696Z,29
2023-05-14T02:23:49.685Z,29
2023-05-14T02:24:22.998Z,29
2023-05-14T02:24:44.202Z,29
2023-05-14T02:25:06.737Z,28
2023-05-14T02:25:43.645Z,28
2023-05-14T02:26:13.350Z,28
2023-05-14T02:26:46.005Z,28
2023-05-14T02:27:16.793Z,28
2023-05-14T02:27:49.445Z,28
2023-05-14T02:28:21.608Z,28
2023-05-14T02:28:44.189Z,28
2023-05-14T02:29:06.872Z,28
2023-05-14T02:29:41.615Z,28
2023-05-14T02:30:16.903Z,28
2023-05-14T02:30:45.251Z,28
2023-05-14T02:31:16.850Z,28
2023-05-14T02:31:52.250Z,28
2023-05-14T02:32:37.700Z,28
2023-05-14T02:33:09.606Z,28
2023-05-14T02:33:42.137Z,28
2023-05-14T02:34:13.237Z,28
2023-05-14T02:34:45.298Z,28
2023-05-14T02:35:17.058Z,28
2023-05-14T02:35:50.097Z,28
2023-05-14T02:36:21.331Z,26
2023-05-14T02:36:44.017Z,26
2023-05-14T02:37:07.446Z,26
2023-05-14T02:37:43.061Z,26
2023-05-14T02:38:13.547Z,26
2023-05-14T02:38:45.786Z,26
2023-05-14T02:39:16.624Z,26
2023-05-14T02:39:49.130Z,26
2023-05-14T02:40:21.519Z,26
2023-05-14T02:40:43.980Z,26
2023-05-14T02:41:06.342Z,21
2023-05-14T02:41:43.116Z,20
2023-05-14T02:42:31.683Z,20
2023-05-14T02:42:52.403Z,20
2023-05-14T02:43:14.893Z,16
2023-05-14T02:43:49.366Z,12
2023-05-14T02:44:21.230Z,12
2023-05-14T02:44:44.041Z,11
2023-05-14T02:45:06.428Z,11
2023-05-14T02:45:43.589Z,10
2023-05-14T02:46:13.268Z,9
2023-05-14T02:46:45.165Z,9
2023-05-14T02:47:16.550Z,9
2023-05-14T02:47:49.327Z,10
2023-05-14T02:48:21.600Z,10
2023-05-14T02:48:45.358Z,10
2023-05-14T02:49:07.502Z,10
2023-05-14T02:49:43.696Z,10
2023-05-14T02:50:14.516Z,10
2023-05-14T02:50:45.272Z,13
2023-05-14T02:51:17.182Z,24
2023-05-14T02:51:49.138Z,32
2023-05-14T02:52:21.352Z,35
2023-05-14T02:52:44.839Z,35
2023-05-14T02:53:06.729Z,35
2023-05-14T02:53:41.142Z,35
2023-05-14T02:54:29.596Z,34
2023-05-14T02:54:52.051Z,34
2023-05-14T02:55:14.848Z,34
2023-05-14T02:55:49.938Z,34
2023-05-14T02:56:21.336Z,35
2023-05-14T02:56:45.449Z,35
2023-05-14T02:57:10.600Z,36
2023-05-14T02:57:41.274Z,43
2023-05-14T02:58:13.419Z,44
2023-05-14T02:58:45.409Z,44
2023-05-14T02:59:17.254Z,44
2023-05-14T02:59:49.421Z,41
2023-05-14T03:00:28.179Z,41
2023-05-14T03:00:50.372Z,40
2023-05-14T03:01:25.762Z,40
2023-05-14T03:01:47.909Z,40
2023-05-14T03:02:10.503Z,39
2023-05-14T03:02:46.056Z,38
2023-05-14T03:03:16.502Z,38
2023-05-14T03:03:49.324Z,38
2023-05-14T03:04:21.326Z,38
2023-05-14T03:04:46.098Z,38
2023-05-14T03:05:06.291Z,38
2023-05-14T03:05:41.686Z,38
2023-05-14T03:06:13.188Z,38
2023-05-14T03:06:46.767Z,38
2023-05-14T03:07:16.385Z,38
2023-05-14T03:07:49.630Z,38
2023-05-14T03:08:21.044Z,38
2023-05-14T03:08:46.850Z,37
2023-05-14T03:09:08.372Z,38
2023-05-14T03:09:41.440Z,37
2023-05-14T03:10:13.157Z,37
2023-05-14T03:10:48.132Z,37
2023-05-14T03:11:16.410Z,38
2023-05-14T03:11:54.623Z,38
2023-05-14T03:12:21.056Z,38
2023-05-14T03:12:43.978Z,38
2023-05-14T03:13:07.801Z,38
2023-05-14T03:13:41.297Z,38
2023-05-14T03:14:13.094Z,38
2023-05-14T03:14:47.736Z,38
2023-05-14T03:15:16.570Z,38
2023-05-14T03:15:49.269Z,38
2023-05-14T03:16:21.112Z,38
2023-05-14T03:16:48.318Z,38
2023-05-14T03:17:09.015Z,31
2023-05-14T03:17:41.788Z,30
2023-05-14T03:18:13.314Z,30
2023-05-14T03:18:45.134Z,30
2023-05-14T03:19:16.663Z,30
2023-05-14T03:19:49.935Z,30
2023-05-14T03:20:21.343Z,30
2023-05-14T03:20:44.009Z,30
2023-05-14T03:21:06.392Z,30
2023-05-14T03:21:41.734Z,30
2023-05-14T03:22:14.598Z,30
2023-05-14T03:22:45.074Z,30
2023-05-14T03:23:16.554Z,30
2023-05-14T03:23:49.537Z,30
2023-05-14T03:24:21.300Z,30
2023-05-14T03:24:49.767Z,30
2023-05-14T03:25:25.669Z,30
2023-05-14T03:25:49.890Z,30
2023-05-14T03:26:11.338Z,30
2023-05-14T03:26:45.084Z,30
2023-05-14T03:27:16.429Z,30
2023-05-14T03:27:50.355Z,30
2023-05-14T03:28:21.321Z,30
2023-05-14T03:28:44.005Z,30
2023-05-14T03:29:06.274Z,30
2023-05-14T03:29:35.764Z,30
2023-05-14T03:30:13.970Z,30
2023-05-14T03:30:46.078Z,30
2023-05-14T03:31:16.614Z,30
2023-05-14T03:31:55.838Z,30
2023-05-14T03:32:18.124Z,30
2023-05-14T03:32:48.134Z,30
2023-05-14T03:33:26.185Z,30
2023-05-14T03:33:47.835Z,30
2023-05-14T03:34:10.443Z,30
2023-05-14T03:34:45.512Z,30
2023-05-14T03:35:16.445Z,30
2023-05-14T03:35:51.806Z,30
2023-05-14T03:36:21.227Z,30
2023-05-14T03:36:44.411Z,30
2023-05-14T03:37:06.929Z,30
2023-05-14T03:37:41.083Z,23
2023-05-14T03:38:13.464Z,22
2023-05-14T03:38:45.337Z,20
2023-05-14T03:39:16.497Z,17
2023-05-14T03:39:49.378Z,17
2023-05-14T03:40:21.466Z,17
2023-05-14T03:40:44.019Z,16
2023-05-14T03:41:06.347Z,16
2023-05-14T03:41:41.581Z,17
2023-05-14T03:42:13.217Z,17
2023-05-14T03:42:45.651Z,17
2023-05-14T03:43:16.571Z,17
2023-05-14T03:43:49.153Z,17
2023-05-14T03:44:22.712Z,17
2023-05-14T03:44:44.158Z,14
2023-05-14T03:45:06.539Z,11
2023-05-14T03:45:41.348Z,1
2023-05-14T03:46:13.151Z,355
2023-05-14T03:46:45.228Z,357
2023-05-14T03:47:16.541Z,1
2023-05-14T03:47:49.403Z,1
2023-05-14T03:48:21.183Z,2
2023-05-14T03:48:43.777Z,3
2023-05-14T03:49:06.061Z,3
2023-05-14T03:49:41.786Z,4
2023-05-14T03:50:13.239Z,4
2023-05-14T03:50:45.259Z,4
2023-05-14T03:51:16.962Z,4
2023-05-14T03:51:49.401Z,4
2023-05-14T03:52:21.328Z,5
2023-05-14T03:52:44.128Z,6
2023-05-14T03:53:06.539Z,12
2023-05-14T03:53:41.325Z,13
2023-05-14T03:54:16.628Z,13
2023-05-14T03:54:45.109Z,13
2023-05-14T03:55:16.556Z,13
2023-05-14T03:55:49.161Z,13
2023-05-14T03:56:21.267Z,15
2023-05-14T03:56:44.543Z,15
2023-05-14T03:57:06.968Z,15
2023-05-14T03:57:41.359Z,15
2023-05-14T03:58:13.288Z,15
2023-05-14T03:58:46.713Z,15
2023-05-14T03:59:16.666Z,16
2023-05-14T03:59:49.180Z,16
2023-05-14T04:00:21.803Z,16
2023-05-14T04:00:47.534Z,16
2023-05-14T04:01:25.438Z,16
2023-05-14T04:01:48.061Z,16
2023-05-14T04:02:14.913Z,16
2023-05-14T04:02:45.513Z,16
2023-05-14T04:03:18.194Z,17
2023-05-14T04:03:49.486Z,17
2023-05-14T04:04:29.881Z,17
2023-05-14T04:04:44.149Z,17
2023-05-14T04:05:06.373Z,17
2023-05-14T04:05:41.316Z,17
2023-05-14T04:06:13.377Z,17
2023-05-14T04:06:45.309Z,17
2023-05-14T04:07:16.908Z,17
2023-05-14T04:07:52.946Z,17
2023-05-14T04:08:21.734Z,17
2023-05-14T04:08:50.369Z,17
2023-05-14T04:09:08.707Z,14
2023-05-14T04:09:46.764Z,13
2023-05-14T04:10:13.658Z,13
2023-05-14T04:10:45.485Z,13
2023-05-14T04:11:16.725Z,13
2023-05-14T04:11:49.623Z,14
2023-05-14T04:12:21.666Z,14
2023-05-14T04:12:44.247Z,14
2023-05-14T04:13:10.243Z,17
2023-05-14T04:13:41.519Z,26
2023-05-14T04:14:13.223Z,32
2023-05-14T04:14:45.425Z,35
2023-05-14T04:15:16.789Z,34
2023-05-14T04:15:49.301Z,35
2023-05-14T04:16:21.796Z,34
2023-05-14T04:16:47.062Z,35
2023-05-14T04:17:09.871Z,35
2023-05-14T04:17:41.462Z,35
2023-05-14T04:18:13.266Z,35
2023-05-14T04:18:46.792Z,34
2023-05-14T04:19:16.774Z,35
2023-05-14T04:19:50.758Z,35
2023-05-14T04:20:21.627Z,34
2023-05-14T04:20:43.907Z,34
2023-05-14T04:21:06.142Z,34
2023-05-14T04:21:41.477Z,34
2023-05-14T04:22:13.914Z,32
2023-05-14T04:22:45.224Z,28
2023-05-14T04:23:16.692Z,26
2023-05-14T04:23:49.450Z,24
2023-05-14T04:24:21.837Z,23
2023-05-14T04:24:44.383Z,23
2023-05-14T04:25:06.841Z,23
2023-05-14T04:25:42.792Z,23
2023-05-14T04:26:13.306Z,23
2023-05-14T04:26:45.153Z,23
2023-05-14T04:27:16.619Z,22
2023-05-14T04:27:49.209Z,20
2023-05-14T04:28:21.458Z,17
2023-05-14T04:28:44.090Z,17
2023-05-14T04:29:06.270Z,17
2023-05-14T04:29:41.201Z,17
2023-05-14T04:30:14.811Z,16
2023-05-14T04:30:45.608Z,14
2023-05-14T04:31:16.593Z,13
2023-05-14T04:31:49.279Z,12
2023-05-14T04:32:21.138Z,12
2023-05-14T04:32:44.270Z,12
2023-05-14T04:33:06.763Z,12
2023-05-14T04:33:41.196Z,12
2023-05-14T04:34:13.806Z,12
2023-05-14T04:34:45.438Z,12
2023-05-14T04:35:16.515Z,12
2023-05-14T04:35:49.253Z,13
2023-05-14T04:36:21.123Z,13
2023-05-14T04:36:43.770Z,13
2023-05-14T04:37:06.261Z,13
2023-05-14T04:37:41.495Z,13
2023-05-14T04:38:13.531Z,13
2023-05-14T04:38:45.366Z,13
2023-05-14T04:39:16.484Z,13
2023-05-14T04:39:49.508Z,13
2023-05-14T04:40:21.281Z,14
2023-05-14T04:40:44.340Z,14
2023-05-14T04:41:06.584Z,14
2023-05-14T04:41:41.079Z,14
2023-05-14T04:42:13.058Z,14
2023-05-14T04:42:45.386Z,14
2023-05-14T04:43:16.592Z,14
2023-05-14T04:43:49.207Z,14
2023-05-14T04:44:21.394Z,14
2023-05-14T04:44:44.197Z,14
2023-05-14T04:45:06.784Z,14
2023-05-14T04:45:41.540Z,14
2023-05-14T04:46:13.069Z,14
2023-05-14T04:46:45.226Z,14
2023-05-14T04:47:16.776Z,14
2023-05-14T04:47:49.263Z,14
2023-05-14T04:48:21.375Z,14
2023-05-14T04:48:44.170Z,14
2023-05-14T04:49:06.957Z,14
2023-05-14T04:49:41.197Z,14
2023-05-14T04:50:13.151Z,14
2023-05-14T04:50:45.173Z,14
2023-05-14T04:51:16.779Z,14
2023-05-14T04:51:49.521Z,14
2023-05-14T04:52:21.316Z,14
2023-05-14T04:52:45.487Z,14
2023-05-14T04:53:07.041Z,14
2023-05-14T04:53:41.294Z,14
2023-05-14T04:54:13.500Z,14
2023-05-14T04:54:45.255Z,14
2023-05-14T04:55:16.500Z,13
2023-05-14T04:55:49.174Z,12
2023-05-14T04:56:21.252Z,7
2023-05-14T04:56:44.887Z,5
2023-05-14T04:57:07.820Z,5
2023-05-14T04:57:42.679Z,4
2023-05-14T04:58:13.561Z,2
2023-05-14T04:58:45.044Z,2
2023-05-14T04:59:16.589Z,358
2023-05-14T04:59:49.174Z,357
2023-05-14T05:00:21.468Z,358
2023-05-14T05:00:44.420Z,358
2023-05-14T05:01:08.247Z,1
2023-05-14T05:01:41.540Z,2
2023-05-14T05:02:13.395Z,2
2023-05-14T05:02:45.360Z,2
2023-05-14T05:03:18.174Z,2
2023-05-14T05:03:49.412Z,2
2023-05-14T05:04:22.560Z,2
2023-05-14T05:04:44.148Z,2
2023-05-14T05:05:08.738Z,0
2023-05-14T05:05:41.277Z,0
2023-05-14T05:06:13.111Z,0
2023-05-14T05:06:45.320Z,2
2023-05-14T05:07:16.528Z,2
2023-05-14T05:07:49.286Z,2
2023-05-14T05:08:21.542Z,3
2023-05-14T05:08:44.625Z,3
2023-05-14T05:09:09.258Z,8
2023-05-14T05:09:41.177Z,8
2023-05-14T05:10:13.138Z,11
2023-05-14T05:10:45.032Z,11
2023-05-14T05:11:16.750Z,15
2023-05-14T05:11:49.366Z,16
2023-05-14T05:12:21.131Z,14
2023-05-14T05:12:44.008Z,15
2023-05-14T05:13:07.827Z,17
2023-05-14T05:13:42.692Z,15
2023-05-14T05:14:13.461Z,14
2023-05-14T05:14:45.296Z,15
2023-05-14T05:15:16.621Z,13
2023-05-14T05:15:49.133Z,14
2023-05-14T05:16:21.192Z,17
2023-05-14T05:16:43.804Z,20
2023-05-14T05:17:06.327Z,19
2023-05-14T05:17:41.351Z,30
2023-05-14T05:18:13.276Z,31
2023-05-14T05:18:45.233Z,33
2023-05-14T05:19:16.752Z,21
2023-05-14T05:19:49.326Z,21
2023-05-14T05:20:21.152Z,22
2023-05-14T05:20:44.695Z,23
2023-05-14T05:21:07.093Z,19
2023-05-14T05:21:41.222Z,21
2023-05-14T05:22:13.284Z,22
2023-05-14T05:22:45.131Z,22
2023-05-14T05:23:16.804Z,23
2023-05-14T05:23:49.245Z,22
2023-05-14T05:24:21.396Z,20
2023-05-14T05:24:44.152Z,17
2023-05-14T05:25:07.222Z,25
2023-05-14T05:25:42.678Z,35
2023-05-14T05:26:13.428Z,34
2023-05-14T05:26:45.329Z,28
2023-05-14T05:27:16.514Z,23
2023-05-14T05:27:49.169Z,28
2023-05-14T05:28:21.539Z,30
2023-05-14T05:28:44.970Z,26
2023-05-14T05:29:07.733Z,32
2023-05-14T05:29:41.081Z,23
2023-05-14T05:30:13.503Z,22
2023-05-14T05:30:45.272Z,33
2023-05-14T05:31:18.316Z,26
2023-05-14T05:31:49.469Z,27
2023-05-14T05:32:21.200Z,28
2023-05-14T05:32:44.596Z,25
2023-05-14T05:33:07.319Z,20
2023-05-14T05:33:41.184Z,16
2023-05-14T05:34:13.337Z,16
2023-05-14T05:34:45.609Z,24
2023-05-14T05:35:16.598Z,23
2023-05-14T05:35:49.085Z,31
2023-05-14T05:36:21.233Z,24
2023-05-14T05:36:43.889Z,22
2023-05-14T05:37:06.281Z,27
2023-05-14T05:37:41.179Z,30
2023-05-14T05:38:13.479Z,30
2023-05-14T05:38:45.272Z,33
2023-05-14T05:39:16.672Z,23
2023-05-14T05:39:49.465Z,38
2023-05-14T05:40:21.222Z,47
2023-05-14T05:40:43.964Z,42
2023-05-14T05:41:06.300Z,42
2023-05-14T05:41:41.066Z,89
2023-05-14T05:42:13.953Z,76
2023-05-14T05:42:45.162Z,45
2023-05-14T05:43:16.742Z,88
2023-05-14T05:43:49.412Z,67
2023-05-14T05:44:21.604Z,77
2023-05-14T05:44:44.765Z,70
2023-05-14T05:45:07.148Z,45
2023-05-14T05:45:41.299Z,83
2023-05-14T05:46:14.158Z,67
2023-05-14T05:46:45.783Z,75
2023-05-14T05:47:17.142Z,78
2023-05-14T05:47:49.210Z,68
2023-05-14T05:48:21.067Z,57
2023-05-14T05:48:43.964Z,55
2023-05-14T05:49:06.485Z,42
2023-05-14T05:49:41.282Z,53
2023-05-14T05:50:14.821Z,72
2023-05-14T05:50:45.188Z,78
2023-05-14T05:51:16.462Z,42
2023-05-14T05:51:49.522Z,66
2023-05-14T05:52:21.101Z,54
2023-05-14T05:52:44.890Z,80
2023-05-14T05:53:07.268Z,78
2023-05-14T05:53:41.431Z,65
2023-05-14T05:54:15.552Z,81
2023-05-14T05:54:45.258Z,69
2023-05-14T05:55:16.558Z,64
2023-05-14T05:55:49.314Z,68
2023-05-14T05:56:21.263Z,76
2023-05-14T05:56:43.857Z,76
2023-05-14T05:57:06.353Z,66
2023-05-14T05:57:43.729Z,76
2023-05-14T05:58:15.830Z,68
2023-05-14T05:58:45.204Z,71
2023-05-14T05:59:16.920Z,42
2023-05-14T05:59:49.327Z,44
2023-05-14T06:00:22.149Z,52
2023-05-14T06:00:44.816Z,27
2023-05-14T06:01:13.685Z,43
2023-05-14T06:01:41.385Z,28
2023-05-14T06:02:16.627Z,349
2023-05-14T06:02:45.312Z,11
2023-05-14T06:03:16.913Z,20
2023-05-14T06:03:49.613Z,37
2023-05-14T06:04:21.594Z,47
2023-05-14T06:04:56.406Z,37
2023-05-14T06:05:07.803Z,18
2023-05-14T06:05:41.284Z,26
2023-05-14T06:06:13.387Z,27
2023-05-14T06:06:45.680Z,32
2023-05-14T06:07:17.729Z,32
2023-05-14T06:07:49.377Z,38
2023-05-14T06:08:21.329Z,49
2023-05-14T06:08:44.688Z,77
2023-05-14T06:09:12.207Z,47
2023-05-14T06:09:41.675Z,36
2023-05-14T06:10:13.272Z,71
2023-05-14T06:10:47.449Z,66
2023-05-14T06:11:17.925Z,41
2023-05-14T06:11:49.270Z,52
2023-05-14T06:12:21.132Z,79
2023-05-14T06:12:43.888Z,77
2023-05-14T06:13:09.689Z,92
2023-05-14T06:13:41.216Z,87
2023-05-14T06:14:13.365Z,59
2023-05-14T06:14:45.129Z,80
2023-05-14T06:15:18.400Z,56
2023-05-14T06:15:49.211Z,69
2023-05-14T06:16:21.663Z,80
2023-05-14T06:16:44.089Z,92
2023-05-14T06:17:06.489Z,83
2023-05-14T06:17:42.703Z,71
2023-05-14T06:18:13.262Z,92
2023-05-14T06:18:45.288Z,84
2023-05-14T06:19:19.272Z,97
2023-05-14T06:19:49.449Z,78
2023-05-14T06:20:21.223Z,34
2023-05-14T06:20:44.409Z,50
2023-05-14T06:21:06.689Z,112
2023-05-14T06:21:41.551Z,61
2023-05-14T06:22:13.149Z,81
2023-05-14T06:22:45.259Z,65
2023-05-14T06:23:22.191Z,90
2023-05-14T06:23:49.153Z,88
2023-05-14T06:24:21.632Z,68
2023-05-14T06:24:44.664Z,67
2023-05-14T06:25:07.232Z,83
2023-05-14T06:25:42.826Z,78
2023-05-14T06:26:13.150Z,91
2023-05-14T06:26:45.113Z,86
2023-05-14T06:27:16.604Z,123
2023-05-14T06:27:49.234Z,80
2023-05-14T06:28:21.237Z,93
2023-05-14T06:28:43.766Z,76
2023-05-14T06:29:06.011Z,82
2023-05-14T06:29:41.233Z,84
2023-05-14T06:30:16.758Z,47
2023-05-14T06:30:45.310Z,64
2023-05-14T06:31:16.577Z,72
2023-05-14T06:31:49.315Z,88
2023-05-14T06:32:22.213Z,63
2023-05-14T06:32:44.378Z,80
2023-05-14T06:33:06.724Z,77
2023-05-14T06:33:41.175Z,71
2023-05-14T06:34:13.328Z,70
2023-05-14T06:34:45.362Z,76
2023-05-14T06:35:16.750Z,79
2023-05-14T06:35:49.239Z,75
2023-05-14T06:36:21.973Z,75
2023-05-14T06:36:44.127Z,86
2023-05-14T06:37:06.585Z,71
2023-05-14T06:37:41.287Z,62
2023-05-14T06:38:13.229Z,78
2023-05-14T06:38:45.265Z,77
2023-05-14T06:39:11.615Z,83
2023-05-14T06:39:49.619Z,71
2023-05-14T06:40:23.018Z,84
2023-05-14T06:40:43.856Z,69
2023-05-14T06:41:06.139Z,89
2023-05-14T06:41:41.239Z,68
2023-05-14T06:42:13.389Z,83
2023-05-14T06:42:45.260Z,86
2023-05-14T06:43:17.206Z,79
2023-05-14T06:43:49.140Z,83
2023-05-14T06:44:23.306Z,66
2023-05-14T06:44:44.106Z,84
2023-05-14T06:45:06.474Z,77
2023-05-14T06:45:42.457Z,83
2023-05-14T06:46:13.231Z,67
2023-05-14T06:46:45.771Z,54
2023-05-14T06:47:16.566Z,68
2023-05-14T06:47:49.196Z,73
2023-05-14T06:48:23.948Z,55
2023-05-14T06:48:43.976Z,69
2023-05-14T06:49:06.538Z,63
2023-05-14T06:49:41.644Z,83
2023-05-14T06:50:14.269Z,85
2023-05-14T06:50:45.394Z,73
2023-05-14T06:51:16.875Z,84
2023-05-14T06:51:49.300Z,56
2023-05-14T06:52:21.483Z,49
2023-05-14T06:52:44.136Z,85
2023-05-14T06:53:06.705Z,72
2023-05-14T06:53:41.926Z,78
2023-05-14T06:54:13.492Z,57
2023-05-14T06:54:47.465Z,82
2023-05-14T06:55:16.810Z,85
2023-05-14T06:55:50.219Z,69
2023-05-14T06:56:21.153Z,59
2023-05-14T06:56:43.960Z,88
2023-05-14T06:57:06.532Z,75
2023-05-14T06:57:44.537Z,72
2023-05-14T06:58:13.325Z,83
2023-05-14T06:58:45.451Z,82
2023-05-14T06:59:17.487Z,70
2023-05-14T06:59:49.714Z,91
2023-05-14T07:00:22.779Z,77
2023-05-14T07:00:45.212Z,101
2023-05-14T07:01:07.581Z,69
2023-05-14T07:01:41.789Z,79
2023-05-14T07:02:14.152Z,80
2023-05-14T07:02:46.577Z,85
2023-05-14T07:03:17.002Z,70
2023-05-14T07:03:53.555Z,84
2023-05-14T07:04:15.973Z,72
2023-05-14T07:04:48.568Z,71
2023-05-14T07:05:27.835Z,61
2023-05-14T07:05:47.754Z,30
2023-05-14T07:06:11.894Z,66
2023-05-14T07:06:45.140Z,64
2023-05-14T07:07:16.682Z,30
2023-05-14T07:07:49.083Z,40
2023-05-14T07:08:21.601Z,69
2023-05-14T07:08:44.608Z,72